Slayton, MN

11:53 AM CDT on May 25, 2015 (GMT -0500)
Tracy | | Change Station
CLOSE
Current Station
Airport
Location: Tracy,
Elevation: 1339 ft
Nearby Weather Stations

Elev 1339 ft 44.25 °N, 95.61 °W | Updated 21 minutes ago

Overcast
Overcast
65 °F
Feels Like 65 °F
N
8
Wind Variable Wind from West

Today
High -- | Low -- °F
--% Chance of Precip.
Yesterday
High -- | Low -- °F
Precip. -- in
5:47 AM 8:52 PM
Waxing Crescent, 50% visible
Pressure 29.73 in
Visibility 10.0 miles
Clouds Scattered Clouds 1800 ft
Overcast 3100 ft
Dew Point 59 °F
Humidity 82%
Rainfall 0.08 in
Snow Depth Not available.
UV 3 out of 12
Pollen 3.80 out of 12
Air Quality Not available.
Flu Activity Sporadic
METAR KTKC 251632Z AUTO 27007KT 230V290 10SM SCT018 OVC031 18/15 A2973 RMK AO2 T01810149

More Conditions Fewer Conditions

Pressure 29.73 in
Visibility 10.0 miles
Clouds Scattered Clouds 1800 ft
Overcast 3100 ft
Dew Point 59 °F
Humidity 82%
Rainfall 0.08 in
Snow Depth Not available.
UV 3 out of 12
Pollen 3.80 out of 12
Air Quality Not available.
Flu Activity Sporadic
METAR KTKC 251632Z AUTO 27007KT 230V290 10SM SCT018 OVC031 18/15 A2973 RMK AO2 T01810149

More Conditions Fewer Conditions

10-Day Weather Forecast

Almanac

Astronomy

May. 25, 2015 Rise Set
Actual Time
Civil Twilight
Nautical Twilight
Astronomical Twilight
Moon
Length of Visible Light
Length of Day
Tomorrow will be .
, % of the Moon is Illuminated

Today's Extremes

State Highs State Lows

Community

WunderPhotos

Upload Photos

1,824,057 photos uploaded!

WunderBlogs® & News

Nearby

Air Quality

  Air Quality AQ Index Pollutant
Not available.

Snow Depth

Station Depth Elevation

Earthquake Activity

City Distance Mag. Time & Date
Minimum magnitude displayed is 2.5.

Coastal Water Temperatures

Place Temperature

Stations

Nearby Weather Stations

Station Location Temp. Windchill Dew Point Humidity Wind Precip. Elev Updated Type